Time;durP1;ratioP1;P1;durP2;ratioP2;P2;SDS_P1;SDS_P2;PMS_P1;PMS_P2;Temp;Humidity;BMP_temperature;BMP_pressure;BME280_temperature;BME280_humidity;BME280_pressure;Samples;Min_cycle;Max_cycle;Signal;HPM_P1;HPM_P2
2020/12/03 00:00:00;;;;;;;414.42;240.30;;;;;;;;;;5071639;28;20390;-49
2020/12/03 00:02:26;;;;;;;416.63;245.15;;;;;;;;;;5064552;28;20032;-51
2020/12/03 00:04:52;;;;;;;413.80;242.30;;;;;;;;;;5069299;28;20048;-47
2020/12/03 00:07:18;;;;;;;421.02;247.48;;;;;;;;;;5071590;28;20112;-48
2020/12/03 00:09:44;;;;;;;415.08;239.55;;;;;;;;;;5060048;28;20097;-46
2020/12/03 00:12:10;;;;;;;414.98;240.07;;;;;;;;;;5064294;28;20389;-51
2020/12/03 00:14:36;;;;;;;415.98;240.77;;;;;;;;;;5067439;28;20028;-49
2020/12/03 00:17:02;;;;;;;414.73;240.68;;;;;;;;;;5057382;28;20467;-51
2020/12/03 00:19:28;;;;;;;410.70;239.30;;;;;;;;;;5064456;28;20024;-49
2020/12/03 00:21:58;;;;;;;420.88;245.05;;;;;;;;;;5065943;28;20036;-51
2020/12/03 00:24:25;;;;;;;419.80;241.73;;;;;;;;;;5060826;28;20441;-51
2020/12/03 00:26:51;;;;;;;421.23;243.07;;;;;;;;;;5062657;28;20029;-52
2020/12/03 00:29:17;;;;;;;417.55;241.32;;;;;;;;;;5070322;28;20016;-51
2020/12/03 00:31:43;;;;;;;418.08;242.82;;;;;;;;;;5064475;28;20040;-53
2020/12/03 00:34:10;;;;;;;419.88;243.20;;;;;;;;;;5066925;28;20056;-52
2020/12/03 00:36:37;;;;;;;423.40;246.38;;;;;;;;;;5068938;28;20431;-47
2020/12/03 00:39:05;;;;;;;420.63;243.70;;;;;;;;;;5062950;28;20028;-54
2020/12/03 00:41:31;;;;;;;419.50;242.48;;;;;;;;;;5065852;28;20048;-50
2020/12/03 00:43:57;;;;;;;415.77;239.32;;;;;;;;;;5065215;28;20470;-50
2020/12/03 00:46:30;;;;;;;417.17;241.52;;;;;;;;;;5069284;28;20069;-52
2020/12/03 00:48:56;;;;;;;427.80;243.68;;;;;;;;;;5067177;28;20025;-53
2020/12/03 00:51:23;;;;;;;418.63;239.10;;;;;;;;;;5065395;28;20017;-51
2020/12/03 00:53:49;;;;;;;415.08;237.80;;;;;;;;;;5065447;28;20036;-53
2020/12/03 00:56:17;;;;;;;418.05;240.13;;;;;;;;;;5067758;28;20446;-51
2020/12/03 00:58:44;;;;;;;416.13;239.82;;;;;;;;;;5065556;28;20020;-53
2020/12/03 01:01:09;;;;;;;421.42;240.88;;;;;;;;;;5068767;28;20461;-51
2020/12/03 01:03:35;;;;;;;419.65;242.30;;;;;;;;;;5063406;28;20112;-48
2020/12/03 01:06:01;;;;;;;418.45;239.35;;;;;;;;;;5064108;28;20027;-49
2020/12/03 01:08:27;;;;;;;412.08;236.00;;;;;;;;;;5067725;28;20067;-47
2020/12/03 01:10:53;;;;;;;417.30;239.00;;;;;;;;;;5062078;28;20055;-48
2020/12/03 01:13:19;;;;;;;420.10;239.82;;;;;;;;;;5065686;28;20104;-52
2020/12/03 01:15:45;;;;;;;419.50;237.10;;;;;;;;;;5068216;28;20016;-49
2020/12/03 01:18:11;;;;;;;418.00;238.77;;;;;;;;;;5064820;28;20020;-52
2020/12/03 01:20:37;;;;;;;420.60;237.68;;;;;;;;;;5061757;28;20111;-49
2020/12/03 01:23:03;;;;;;;421.55;240.10;;;;;;;;;;5062677;28;20036;-49
2020/12/03 01:25:30;;;;;;;418.20;239.63;;;;;;;;;;5060549;28;20020;-49
2020/12/03 01:27:56;;;;;;;421.77;243.63;;;;;;;;;;5063985;28;20025;-46
2020/12/03 01:30:22;;;;;;;417.75;239.07;;;;;;;;;;5068556;28;20027;-49
2020/12/03 01:32:48;;;;;;;425.58;243.93;;;;;;;;;;5063040;28;20040;-49
2020/12/03 01:35:15;;;;;;;418.23;237.57;;;;;;;;;;5064719;28;20073;-52
2020/12/03 01:37:41;;;;;;;422.92;240.02;;;;;;;;;;5060879;28;20478;-51
2020/12/03 01:40:09;;;;;;;419.77;235.30;;;;;;;;;;5064633;28;20013;-47
2020/12/03 01:42:39;;;;;;;421.40;238.35;;;;;;;;;;5062735;28;20024;-50
2020/12/03 01:45:24;;;;;;;419.80;234.77;;;;;;;;;;5070547;28;20027;-49
2020/12/03 01:47:50;;;;;;;427.73;242.13;;;;;;;;;;5065028;28;20028;-49
2020/12/03 01:50:18;;;;;;;421.65;240.65;;;;;;;;;;5064403;28;20074;-48
2020/12/03 01:52:44;;;;;;;421.77;237.00;;;;;;;;;;5069000;28;20127;-54
2020/12/03 01:55:10;;;;;;;421.20;236.40;;;;;;;;;;5067035;28;20108;-53
2020/12/03 01:57:39;;;;;;;421.30;238.05;;;;;;;;;;5067260;28;20025;-55
2020/12/03 02:00:14;;;;;;;421.03;237.67;;;;;;;;;;5066358;28;20016;-47
2020/12/03 02:02:42;;;;;;;415.50;232.10;;;;;;;;;;5059349;28;20013;-50
2020/12/03 02:05:10;;;;;;;419.52;237.38;;;;;;;;;;5063768;28;20043;-51
2020/12/03 02:07:38;;;;;;;414.05;232.63;;;;;;;;;;5063108;28;20343;-49
2020/12/03 02:10:05;;;;;;;418.08;237.45;;;;;;;;;;5064737;28;20016;-48
2020/12/03 02:12:30;;;;;;;427.00;240.65;;;;;;;;;;5067555;28;20127;-51
2020/12/03 02:14:56;;;;;;;424.30;239.75;;;;;;;;;;5068295;28;20096;-49
2020/12/03 02:17:22;;;;;;;420.25;238.25;;;;;;;;;;5065956;28;20028;-53
2020/12/03 02:19:55;;;;;;;417.40;236.57;;;;;;;;;;5070237;28;20021;-52
2020/12/03 02:22:21;;;;;;;417.45;234.43;;;;;;;;;;5065839;28;20599;-52
2020/12/03 02:24:47;;;;;;;414.48;237.00;;;;;;;;;;5069190;28;20027;-52
2020/12/03 02:27:14;;;;;;;423.17;240.18;;;;;;;;;;5064577;28;20029;-47
2020/12/03 02:29:40;;;;;;;428.83;239.00;;;;;;;;;;5067656;28;20037;-51
2020/12/03 02:32:06;;;;;;;418.60;234.23;;;;;;;;;;5067333;28;20037;-46
2020/12/03 02:34:33;;;;;;;425.95;239.88;;;;;;;;;;5069049;28;20414;-50
2020/12/03 02:37:00;;;;;;;426.65;240.73;;;;;;;;;;5067338;28;20085;-53
2020/12/03 02:39:27;;;;;;;416.70;235.02;;;;;;;;;;5062090;28;20028;-50
2020/12/03 02:41:53;;;;;;;423.95;239.73;;;;;;;;;;5067079;28;20028;-51
2020/12/03 02:44:19;;;;;;;425.63;242.18;;;;;;;;;;5064832;28;20029;-51
2020/12/03 02:46:45;;;;;;;425.23;237.93;;;;;;;;;;5072059;28;20103;-50
2020/12/03 02:49:12;;;;;;;424.00;238.25;;;;;;;;;;5064810;28;20017;-49
2020/12/03 02:51:39;;;;;;;419.15;237.60;;;;;;;;;;5068508;28;20024;-47
2020/12/03 02:54:05;;;;;;;425.05;238.20;;;;;;;;;;5072945;28;20040;-50
2020/12/03 02:56:31;;;;;;;429.88;244.38;;;;;;;;;;5069892;28;20148;-50
2020/12/03 02:58:57;;;;;;;429.95;242.82;;;;;;;;;;5063802;28;20104;-50
2020/12/03 03:01:23;;;;;;;433.92;243.52;;;;;;;;;;5065005;28;20029;-49
2020/12/03 03:03:49;;;;;;;426.85;239.93;;;;;;;;;;5066501;28;20039;-47
2020/12/03 03:06:15;;;;;;;433.45;245.88;;;;;;;;;;5071303;28;20028;-50
2020/12/03 03:08:41;;;;;;;427.48;237.73;;;;;;;;;;5070504;28;20028;-47
2020/12/03 03:11:07;;;;;;;436.80;245.23;;;;;;;;;;5063266;28;20029;-52
2020/12/03 03:13:33;;;;;;;428.45;238.52;;;;;;;;;;5069686;28;20036;-52
2020/12/03 03:15:59;;;;;;;436.58;243.18;;;;;;;;;;5062282;28;20020;-54
2020/12/03 03:18:25;;;;;;;433.40;243.18;;;;;;;;;;5064619;28;20021;-51
2020/12/03 03:20:51;;;;;;;435.60;243.20;;;;;;;;;;5073015;28;20024;-51
2020/12/03 03:23:17;;;;;;;429.48;240.98;;;;;;;;;;5072951;28;20032;-50
2020/12/03 03:25:44;;;;;;;438.80;243.98;;;;;;;;;;5067481;28;20468;-49
2020/12/03 03:28:10;;;;;;;437.92;246.43;;;;;;;;;;5065838;28;20017;-48
2020/12/03 03:30:36;;;;;;;433.58;240.50;;;;;;;;;;5062926;28;20029;-52
2020/12/03 03:33:02;;;;;;;438.70;242.13;;;;;;;;;;5066019;28;20045;-51
2020/12/03 03:35:28;;;;;;;420.98;234.27;;;;;;;;;;5071156;28;20028;-51
2020/12/03 03:37:54;;;;;;;430.90;238.40;;;;;;;;;;5067656;28;20016;-52
2020/12/03 03:40:20;;;;;;;426.63;237.50;;;;;;;;;;5065915;28;20028;-47
2020/12/03 03:42:46;;;;;;;428.67;240.43;;;;;;;;;;5070934;28;20032;-52
2020/12/03 03:45:12;;;;;;;423.80;236.70;;;;;;;;;;5070825;28;20621;-50
2020/12/03 03:47:39;;;;;;;424.10;234.02;;;;;;;;;;5065463;28;20017;-50
2020/12/03 03:50:06;;;;;;;430.50;241.75;;;;;;;;;;5066711;28;20474;-54
2020/12/03 03:52:32;;;;;;;456.67;252.88;;;;;;;;;;5068435;28;20024;-52
2020/12/03 03:54:59;;;;;;;462.27;256.77;;;;;;;;;;5069071;28;20024;-49
2020/12/03 03:57:25;;;;;;;459.25;253.15;;;;;;;;;;5070197;28;20020;-49
2020/12/03 03:59:52;;;;;;;449.40;243.05;;;;;;;;;;5064684;28;20139;-52
2020/12/03 04:02:21;;;;;;;455.33;253.55;;;;;;;;;;5059174;28;20043;-50
2020/12/03 04:04:47;;;;;;;474.70;258.87;;;;;;;;;;5065096;28;20488;-51
2020/12/03 04:07:13;;;;;;;536.63;312.85;;;;;;;;;;5068987;28;20430;-52
2020/12/03 04:09:40;;;;;;;441.17;241.82;;;;;;;;;;5068258;28;20577;-48
2020/12/03 04:12:06;;;;;;;431.88;235.07;;;;;;;;;;5070945;28;20047;-49
2020/12/03 04:14:32;;;;;;;439.83;242.38;;;;;;;;;;5070906;28;20012;-48
2020/12/03 04:16:58;;;;;;;433.75;237.77;;;;;;;;;;5069194;28;20036;-49
2020/12/03 04:19:24;;;;;;;439.40;242.57;;;;;;;;;;5071156;28;20338;-50
2020/12/03 04:21:50;;;;;;;441.05;242.80;;;;;;;;;;5069189;28;20111;-51
2020/12/03 04:24:16;;;;;;;435.00;238.10;;;;;;;;;;5069950;28;20420;-51
2020/12/03 04:26:42;;;;;;;439.70;242.07;;;;;;;;;;5072078;28;20107;-51
2020/12/03 04:29:08;;;;;;;443.15;245.27;;;;;;;;;;5062397;28;20042;-47
2020/12/03 04:31:34;;;;;;;443.88;244.30;;;;;;;;;;5063501;28;20016;-48
2020/12/03 04:34:00;;;;;;;436.67;238.23;;;;;;;;;;5066955;28;20359;-49
2020/12/03 04:36:27;;;;;;;441.08;244.15;;;;;;;;;;5069188;28;20067;-52
2020/12/03 04:38:53;;;;;;;449.23;247.80;;;;;;;;;;5071216;28;20024;-53
2020/12/03 04:41:19;;;;;;;438.42;240.73;;;;;;;;;;5069770;28;20025;-50
2020/12/03 04:43:45;;;;;;;442.90;245.63;;;;;;;;;;5069726;28;20105;-48
2020/12/03 04:46:25;;;;;;;440.40;238.10;;;;;;;;;;5067476;28;20625;-51
2020/12/03 04:49:23;;;;;;;447.55;245.02;;;;;;;;;;5067104;28;20431;-51
2020/12/03 04:51:49;;;;;;;440.40;238.20;;;;;;;;;;5064194;28;20100;-49
2020/12/03 04:54:27;;;;;;;439.00;238.57;;;;;;;;;;5067694;28;20624;-53
2020/12/03 04:57:03;;;;;;;445.20;241.75;;;;;;;;;;5067872;28;20032;-48
2020/12/03 04:59:49;;;;;;;442.17;240.65;;;;;;;;;;5069609;28;20028;-50
2020/12/03 05:02:30;;;;;;;441.25;237.05;;;;;;;;;;5069091;28;20024;-52
2020/12/03 05:05:02;;;;;;;449.52;241.05;;;;;;;;;;5069156;28;20089;-49
2020/12/03 05:07:29;;;;;;;431.17;230.40;;;;;;;;;;5063970;28;20020;-48
2020/12/03 05:10:16;;;;;;;434.02;238.90;;;;;;;;;;5070614;28;20490;-51
2020/12/03 05:12:43;;;;;;;427.02;233.05;;;;;;;;;;5058301;28;20068;-48
2020/12/03 05:15:30;;;;;;;433.95;236.98;;;;;;;;;;5063670;28;20032;-51
2020/12/03 05:18:15;;;;;;;427.63;232.48;;;;;;;;;;5067020;28;20615;-47
2020/12/03 05:20:42;;;;;;;430.42;232.73;;;;;;;;;;5064279;28;20123;-51
2020/12/03 05:23:12;;;;;;;426.50;233.57;;;;;;;;;;5070130;28;20021;-51
2020/12/03 05:25:38;;;;;;;429.58;232.82;;;;;;;;;;5064806;28;20630;-48
2020/12/03 05:28:23;;;;;;;430.40;235.48;;;;;;;;;;5062112;28;20020;-48
2020/12/03 05:30:49;;;;;;;437.77;238.35;;;;;;;;;;5069030;28;20059;-50
2020/12/03 05:33:15;;;;;;;424.77;228.43;;;;;;;;;;5070116;28;20067;-48
2020/12/03 05:35:41;;;;;;;431.13;235.23;;;;;;;;;;5063203;28;20108;-50
2020/12/03 05:38:20;;;;;;;426.15;233.93;;;;;;;;;;5069322;28;20024;-50
2020/12/03 05:40:47;;;;;;;435.10;237.57;;;;;;;;;;5068395;28;20027;-50
2020/12/03 05:43:14;;;;;;;431.85;234.52;;;;;;;;;;5068997;28;20044;-49
2020/12/03 05:45:40;;;;;;;439.80;240.60;;;;;;;;;;5068033;28;20439;-50
2020/12/03 05:48:06;;;;;;;430.17;233.35;;;;;;;;;;5064531;28;20070;-50
2020/12/03 05:50:39;;;;;;;429.00;234.77;;;;;;;;;;5069289;28;20029;-53
2020/12/03 05:53:08;;;;;;;429.63;232.60;;;;;;;;;;5067222;28;20028;-51
2020/12/03 05:55:35;;;;;;;434.75;235.52;;;;;;;;;;5061042;28;20025;-50
2020/12/03 05:58:21;;;;;;;431.70;233.65;;;;;;;;;;5065589;28;20078;-47
2020/12/03 06:00:47;;;;;;;430.35;232.70;;;;;;;;;;5062798;28;20047;-48
2020/12/03 06:03:38;;;;;;;429.55;231.77;;;;;;;;;;5062779;28;20028;-50
2020/12/03 06:06:22;;;;;;;427.50;231.23;;;;;;;;;;5063247;28;20024;-49
2020/12/03 06:09:07;;;;;;;425.67;227.65;;;;;;;;;;5066142;28;20086;-47
2020/12/03 06:11:42;;;;;;;425.23;231.43;;;;;;;;;;5069924;28;20062;-49
2020/12/03 06:14:08;;;;;;;421.00;226.95;;;;;;;;;;5070096;28;20032;-50
2020/12/03 06:16:56;;;;;;;427.27;234.05;;;;;;;;;;5065646;28;20013;-48
2020/12/03 06:19:31;;;;;;;423.45;231.02;;;;;;;;;;5062628;28;20074;-51
2020/12/03 06:22:05;;;;;;;422.92;228.23;;;;;;;;;;5070879;28;20481;-48
2020/12/03 06:24:31;;;;;;;420.80;225.07;;;;;;;;;;5072004;28;20027;-52
2020/12/03 06:27:24;;;;;;;429.92;232.15;;;;;;;;;;5072307;28;20025;-50
2020/12/03 06:30:22;;;;;;;419.20;225.80;;;;;;;;;;5069580;28;20035;-51
2020/12/03 06:32:57;;;;;;;420.52;223.43;;;;;;;;;;5041637;28;20170;-54
2020/12/03 06:35:34;;;;;;;431.27;230.63;;;;;;;;;;5072350;28;20059;-46
2020/12/03 06:38:10;;;;;;;423.27;225.45;;;;;;;;;;5062921;28;20036;-47
2020/12/03 06:40:39;;;;;;;427.10;227.15;;;;;;;;;;5069033;28;20036;-52
2020/12/03 06:43:11;;;;;;;420.85;224.93;;;;;;;;;;5073570;28;20504;-52
2020/12/03 06:46:05;;;;;;;420.58;226.48;;;;;;;;;;5070369;28;20072;-49
2020/12/03 06:48:43;;;;;;;421.08;225.23;;;;;;;;;;5052491;28;20041;-52
2020/12/03 06:51:15;;;;;;;419.23;220.88;;;;;;;;;;5070612;28;20035;-47
2020/12/03 06:53:56;;;;;;;423.63;229.50;;;;;;;;;;5064890;28;20040;-49
2020/12/03 06:56:22;;;;;;;419.27;227.95;;;;;;;;;;5061840;28;20405;-52
2020/12/03 06:59:03;;;;;;;419.92;226.77;;;;;;;;;;5073161;28;20032;-50
2020/12/03 07:01:47;;;;;;;427.27;232.25;;;;;;;;;;5071410;28;20100;-48
2020/12/03 07:04:33;;;;;;;415.48;221.88;;;;;;;;;;5065578;28;20028;-48
2020/12/03 07:07:14;;;;;;;418.92;224.15;;;;;;;;;;5061019;28;20048;-49
2020/12/03 07:09:43;;;;;;;424.17;227.85;;;;;;;;;;5065589;28;20362;-49
2020/12/03 07:12:22;;;;;;;420.45;227.43;;;;;;;;;;5068176;28;20470;-49
2020/12/03 07:15:16;;;;;;;419.50;221.95;;;;;;;;;;5067831;28;20040;-55
2020/12/03 07:17:54;;;;;;;423.70;225.82;;;;;;;;;;5066096;28;20041;-51
2020/12/03 07:20:20;;;;;;;426.58;231.48;;;;;;;;;;5072089;28;20416;-54
2020/12/03 07:22:55;;;;;;;423.02;226.68;;;;;;;;;;5067371;28;20057;-50
2020/12/03 07:25:21;;;;;;;428.45;228.98;;;;;;;;;;5058071;28;20045;-51
2020/12/03 07:27:52;;;;;;;427.23;226.38;;;;;;;;;;5066694;28;20036;-48
2020/12/03 07:30:25;;;;;;;427.10;225.10;;;;;;;;;;5068174;28;20075;-49
2020/12/03 07:32:54;;;;;;;425.50;224.38;;;;;;;;;;5065821;28;20116;-51
2020/12/03 07:35:38;;;;;;;422.60;227.00;;;;;;;;;;5072275;28;20036;-52
2020/12/03 07:38:15;;;;;;;422.23;223.80;;;;;;;;;;5072085;28;20035;-48
2020/12/03 07:40:41;;;;;;;427.30;232.20;;;;;;;;;;5063519;28;20105;-50
2020/12/03 07:43:19;;;;;;;421.98;222.10;;;;;;;;;;5070975;28;20370;-52
2020/12/03 07:45:48;;;;;;;422.10;226.07;;;;;;;;;;5069581;28;20025;-48
2020/12/03 07:48:13;;;;;;;420.48;224.48;;;;;;;;;;5071426;28;20015;-53
2020/12/03 07:50:39;;;;;;;424.00;227.80;;;;;;;;;;5071613;28;20012;-48
2020/12/03 07:53:22;;;;;;;417.98;223.07;;;;;;;;;;5068866;28;20108;-49
2020/12/03 07:55:48;;;;;;;420.58;227.35;;;;;;;;;;5072194;28;20028;-51
2020/12/03 07:58:37;;;;;;;418.55;224.00;;;;;;;;;;5069055;28;20028;-47
2020/12/03 08:01:04;;;;;;;423.48;226.85;;;;;;;;;;5065783;28;20032;-54
2020/12/03 08:03:41;;;;;;;422.38;224.07;;;;;;;;;;5067402;28;20024;-49
2020/12/03 08:06:15;;;;;;;415.52;219.48;;;;;;;;;;5072138;28;20116;-51
2020/12/03 08:08:42;;;;;;;418.02;223.10;;;;;;;;;;5072324;28;20635;-48
2020/12/03 08:11:27;;;;;;;423.98;229.10;;;;;;;;;;5050418;28;20036;-52
2020/12/03 08:13:57;;;;;;;416.45;219.48;;;;;;;;;;5070997;28;20128;-48
2020/12/03 08:16:23;;;;;;;;;;;;;;;;;;5068696;28;20032;-52
2020/12/03 08:19:00;;;;;;;423.02;218.13;;;;;;;;;;5067852;28;19896;-53
2020/12/03 08:21:37;;;;;;;420.40;221.50;;;;;;;;;;5063428;28;20021;-52
2020/12/03 08:24:06;;;;;;;421.52;222.75;;;;;;;;;;5059265;28;20040;-51
2020/12/03 08:26:33;;;;;;;430.08;227.65;;;;;;;;;;5065794;28;20012;-48
2020/12/03 08:28:59;;;;;;;418.40;222.43;;;;;;;;;;5065146;28;20071;-51
2020/12/03 08:31:25;;;;;;;420.77;220.95;;;;;;;;;;5067314;28;20447;-49
2020/12/03 08:33:54;;;;;;;420.63;224.60;;;;;;;;;;5044918;28;20037;-50
2020/12/03 08:36:20;;;;;;;424.27;227.05;;;;;;;;;;5066547;28;20031;-50
2020/12/03 08:38:52;;;;;;;423.45;222.85;;;;;;;;;;5069941;28;20335;-47
2020/12/03 08:41:19;;;;;;;416.95;220.90;;;;;;;;;;5066937;28;20092;-53
2020/12/03 08:43:50;;;;;;;419.25;225.63;;;;;;;;;;5071356;28;20056;-52
2020/12/03 08:46:22;;;;;;;427.90;232.40;;;;;;;;;;5063237;28;21577;-51
2020/12/03 08:48:48;;;;;;;421.50;225.90;;;;;;;;;;5070400;28;20016;-50
2020/12/03 08:51:16;;;;;;;420.63;228.00;;;;;;;;;;5063203;28;20032;-51
2020/12/03 08:53:47;;;;;;;420.60;227.68;;;;;;;;;;5066764;28;20028;-48
2020/12/03 08:56:16;;;;;;;421.85;232.20;;;;;;;;;;5061306;28;20049;-50
2020/12/03 08:58:52;;;;;;;417.52;225.52;;;;;;;;;;5062172;28;20017;-50
2020/12/03 09:01:20;;;;;;;419.85;228.32;;;;;;;;;;5064235;28;20020;-55
2020/12/03 09:03:46;;;;;;;419.73;227.75;;;;;;;;;;5052473;28;20378;-48
2020/12/03 09:06:13;;;;;;;422.40;229.73;;;;;;;;;;5069606;28;20017;-53
2020/12/03 09:08:39;;;;;;;421.13;229.95;;;;;;;;;;5065836;28;20177;-49
2020/12/03 09:11:05;;;;;;;423.25;231.27;;;;;;;;;;5057191;28;20729;-50
2020/12/03 09:13:31;;;;;;;424.98;237.65;;;;;;;;;;5067271;28;20058;-50
2020/12/03 09:15:58;;;;;;;425.10;234.70;;;;;;;;;;5061113;28;20107;-48
2020/12/03 09:18:23;;;;;;;435.65;246.40;;;;;;;;;;5063059;28;20035;-49
2020/12/03 09:20:49;;;;;;;425.50;236.38;;;;;;;;;;5064030;28;20020;-50
2020/12/03 09:23:22;;;;;;;422.55;237.82;;;;;;;;;;5056646;28;20048;-48
2020/12/03 09:25:48;;;;;;;422.17;237.65;;;;;;;;;;5061180;28;20028;-48
2020/12/03 09:28:14;;;;;;;428.73;241.77;;;;;;;;;;5060527;28;20029;-48
2020/12/03 09:30:41;;;;;;;428.35;245.60;;;;;;;;;;5062922;28;20039;-50
2020/12/03 09:33:10;;;;;;;422.35;238.50;;;;;;;;;;5048171;28;20044;-54
2020/12/03 09:35:36;;;;;;;425.63;242.57;;;;;;;;;;5060563;28;20044;-54
2020/12/03 09:38:06;;;;;;;421.65;243.60;;;;;;;;;;5059192;28;20031;-55
2020/12/03 09:40:33;;;;;;;427.35;246.65;;;;;;;;;;5063293;28;20017;-51
2020/12/03 09:43:00;;;;;;;433.60;251.55;;;;;;;;;;5054611;28;20103;-52
2020/12/03 09:45:39;;;;;;;423.67;243.13;;;;;;;;;;5064456;28;20100;-53
2020/12/03 09:48:12;;;;;;;427.33;246.02;;;;;;;;;;5063490;28;20507;-50
2020/12/03 09:50:44;;;;;;;428.20;246.85;;;;;;;;;;5067820;28;20099;-53
2020/12/03 09:53:18;;;;;;;437.15;249.90;;;;;;;;;;5061936;28;20457;-48
2020/12/03 09:55:45;;;;;;;426.70;243.18;;;;;;;;;;5052571;28;20339;-56
2020/12/03 09:58:11;;;;;;;431.17;252.88;;;;;;;;;;5066322;28;20024;-50
2020/12/03 10:00:40;;;;;;;426.20;248.52;;;;;;;;;;5063195;28;20044;-49
2020/12/03 10:03:15;;;;;;;427.75;249.40;;;;;;;;;;5061790;28;20151;-47
2020/12/03 10:05:47;;;;;;;426.88;247.15;;;;;;;;;;5063520;28;20056;-51
2020/12/03 10:08:32;;;;;;;429.00;250.35;;;;;;;;;;5047271;28;20038;-49
2020/12/03 10:11:17;;;;;;;430.40;246.70;;;;;;;;;;5057398;28;20068;-53
2020/12/03 10:13:49;;;;;;;426.05;242.00;;;;;;;;;;5060234;28;20048;-48
2020/12/03 10:16:20;;;;;;;426.77;241.10;;;;;;;;;;5061089;28;20373;-50
2020/12/03 10:18:51;;;;;;;425.38;240.23;;;;;;;;;;5067887;28;20035;-51
2020/12/03 10:21:23;;;;;;;428.80;244.23;;;;;;;;;;5049182;28;20351;-49
2020/12/03 10:23:50;;;;;;;429.88;244.40;;;;;;;;;;5045909;28;20031;-50
2020/12/03 10:26:21;;;;;;;427.85;244.68;;;;;;;;;;5059052;28;20013;-49
2020/12/03 10:28:52;;;;;;;424.63;239.77;;;;;;;;;;5060328;28;20100;-50
2020/12/03 10:31:22;;;;;;;431.95;246.60;;;;;;;;;;5058180;28;20086;-49
2020/12/03 10:33:49;;;;;;;428.02;241.48;;;;;;;;;;5058818;28;20052;-51
2020/12/03 10:36:28;;;;;;;422.95;241.55;;;;;;;;;;5067769;28;20031;-49
2020/12/03 10:38:56;;;;;;;438.10;245.38;;;;;;;;;;5061820;28;20151;-51
2020/12/03 10:41:29;;;;;;;433.05;251.18;;;;;;;;;;5065076;28;20008;-51
2020/12/03 10:43:57;;;;;;;426.00;243.07;;;;;;;;;;5061974;28;20025;-49
2020/12/03 10:46:25;;;;;;;431.05;247.98;;;;;;;;;;5062402;28;20021;-49
2020/12/03 10:48:53;;;;;;;433.77;247.25;;;;;;;;;;5067246;28;20358;-55
2020/12/03 10:51:22;;;;;;;428.98;248.75;;;;;;;;;;5061942;28;20435;-56
2020/12/03 10:53:50;;;;;;;429.73;246.70;;;;;;;;;;5063676;28;20043;-59
2020/12/03 10:56:16;;;;;;;428.10;245.13;;;;;;;;;;5058253;28;20053;-52
2020/12/03 10:58:55;;;;;;;433.40;245.50;;;;;;;;;;5056534;28;20502;-47
2020/12/03 11:01:23;;;;;;;425.30;243.68;;;;;;;;;;5062472;28;20435;-51
2020/12/03 11:03:51;;;;;;;433.02;250.60;;;;;;;;;;5061844;28;20044;-52
2020/12/03 11:06:22;;;;;;;425.90;245.00;;;;;;;;;;5064030;28;20013;-53
2020/12/03 11:08:48;;;;;;;427.02;248.38;;;;;;;;;;5058334;28;20479;-60
2020/12/03 11:11:14;;;;;;;419.73;237.25;;;;;;;;;;5061254;28;20086;-64
2020/12/03 11:13:42;;;;;;;420.35;246.20;;;;;;;;;;5059141;28;20102;-63
2020/12/03 11:16:10;;;;;;;417.80;238.25;;;;;;;;;;5066346;28;20028;-63
2020/12/03 11:18:41;;;;;;;418.02;240.77;;;;;;;;;;5067159;28;20028;-62
2020/12/03 11:21:09;;;;;;;416.30;234.45;;;;;;;;;;5065631;28;20663;-64
2020/12/03 11:23:39;;;;;;;422.48;239.30;;;;;;;;;;5060503;28;20029;-65
2020/12/03 11:26:06;;;;;;;418.67;236.38;;;;;;;;;;5064286;28;20377;-64
2020/12/03 11:28:35;;;;;;;420.95;238.82;;;;;;;;;;5063045;28;20013;-65
2020/12/03 11:31:03;;;;;;;415.75;233.88;;;;;;;;;;5058786;28;20025;-64
2020/12/03 11:33:30;;;;;;;418.00;238.02;;;;;;;;;;5066105;28;20446;-65
2020/12/03 11:36:06;;;;;;;416.77;236.07;;;;;;;;;;5048408;28;20471;-64
2020/12/03 11:38:32;;;;;;;416.25;237.05;;;;;;;;;;5061068;28;20021;-65
2020/12/03 11:41:02;;;;;;;422.17;241.52;;;;;;;;;;5065345;28;20020;-63
2020/12/03 11:48:52;;;;;;;417.48;236.77;;;;;;;;;;5069481;28;20043;-64
2020/12/03 11:51:37;;;;;;;423.02;237.57;;;;;;;;;;5068961;28;20354;-64
2020/12/03 11:54:07;;;;;;;422.20;239.02;;;;;;;;;;5065626;28;20044;-61
2020/12/03 11:56:34;;;;;;;422.95;241.30;;;;;;;;;;5063645;28;20020;-61
2020/12/03 11:59:13;;;;;;;431.35;249.27;;;;;;;;;;5064490;28;20031;-60
2020/12/03 12:01:39;;;;;;;429.08;244.18;;;;;;;;;;5044582;28;20032;-64
2020/12/03 12:04:10;;;;;;;427.02;248.70;;;;;;;;;;5063228;28;20133;-65
2020/12/03 12:06:47;;;;;;;431.92;244.68;;;;;;;;;;5057302;28;20438;-63
2020/12/03 12:09:19;;;;;;;434.95;249.60;;;;;;;;;;5051264;28;20374;-64
2020/12/03 12:11:46;;;;;;;432.67;247.38;;;;;;;;;;5059987;28;20100;-62
2020/12/03 12:14:12;;;;;;;426.85;245.65;;;;;;;;;;5059414;28;20047;-64
2020/12/03 12:16:38;;;;;;;428.80;246.27;;;;;;;;;;5057947;28;20025;-64
2020/12/03 12:19:05;;;;;;;431.10;249.27;;;;;;;;;;5064769;28;20016;-62
2020/12/03 12:21:33;;;;;;;431.00;248.70;;;;;;;;;;5071835;28;20016;-64
2020/12/03 12:23:59;;;;;;;434.10;251.18;;;;;;;;;;5070196;28;20045;-65
2020/12/03 12:26:27;;;;;;;430.15;247.27;;;;;;;;;;5071025;28;20103;-62
2020/12/03 12:28:53;;;;;;;431.73;249.05;;;;;;;;;;5061468;28;20028;-63
2020/12/03 12:31:19;;;;;;;425.52;245.95;;;;;;;;;;5059904;28;20039;-66
2020/12/03 12:33:45;;;;;;;429.65;248.95;;;;;;;;;;5063410;28;20044;-65
2020/12/03 12:36:11;;;;;;;429.23;250.35;;;;;;;;;;5063293;28;20035;-65
2020/12/03 12:38:37;;;;;;;426.77;243.40;;;;;;;;;;5058560;28;20021;-65
2020/12/03 12:41:03;;;;;;;425.63;245.93;;;;;;;;;;5066065;28;20119;-65
2020/12/03 12:43:29;;;;;;;424.42;241.30;;;;;;;;;;5066898;28;20016;-65
2020/12/03 12:45:55;;;;;;;418.08;222.55;;;;;;;;;;5067899;28;20049;-65
2020/12/03 12:48:21;;;;;;;419.30;225.18;;;;;;;;;;5062863;28;20059;-65
2020/12/03 12:50:47;;;;;;;423.90;227.23;;;;;;;;;;5070092;28;20016;-66
2020/12/03 12:53:13;;;;;;;418.20;220.43;;;;;;;;;;5068882;28;20028;-65
2020/12/03 12:55:39;;;;;;;419.48;222.95;;;;;;;;;;5071159;28;20031;-65
2020/12/03 12:58:05;;;;;;;414.95;220.57;;;;;;;;;;5071362;28;20034;-65
2020/12/03 13:00:32;;;;;;;422.13;230.07;;;;;;;;;;5055392;28;20032;-64
2020/12/03 13:02:58;;;;;;;429.45;230.40;;;;;;;;;;5070822;28;20095;-64
2020/12/03 13:05:24;;;;;;;426.33;228.48;;;;;;;;;;5070590;28;20032;-66
2020/12/03 13:07:50;;;;;;;425.40;229.80;;;;;;;;;;5060604;28;20033;-64
2020/12/03 13:10:17;;;;;;;418.25;223.90;;;;;;;;;;5068588;28;20034;-64
2020/12/03 13:12:44;;;;;;;422.25;228.30;;;;;;;;;;5062811;28;20119;-64
2020/12/03 13:15:10;;;;;;;422.05;228.05;;;;;;;;;;5063166;28;20504;-64
2020/12/03 13:17:36;;;;;;;422.10;229.02;;;;;;;;;;5069799;28;20123;-64
2020/12/03 13:20:02;;;;;;;423.13;226.70;;;;;;;;;;5060192;28;20452;-65
2020/12/03 13:22:28;;;;;;;418.42;224.60;;;;;;;;;;5065369;28;20078;-64
2020/12/03 13:24:54;;;;;;;416.08;222.80;;;;;;;;;;5059910;28;20021;-64
2020/12/03 13:27:20;;;;;;;418.77;225.32;;;;;;;;;;5062743;28;20178;-64
2020/12/03 13:29:46;;;;;;;421.48;225.38;;;;;;;;;;5070277;28;20024;-64
2020/12/03 13:32:12;;;;;;;418.80;222.68;;;;;;;;;;5069755;28;20423;-64
2020/12/03 13:34:38;;;;;;;415.92;225.05;;;;;;;;;;5063785;28;20332;-65
2020/12/03 13:37:04;;;;;;;418.92;227.98;;;;;;;;;;5070342;28;20024;-64
2020/12/03 13:39:30;;;;;;;418.85;229.38;;;;;;;;;;5070714;28;20017;-64
2020/12/03 13:41:56;;;;;;;417.40;227.13;;;;;;;;;;5067284;28;20108;-65
2020/12/03 13:44:22;;;;;;;418.05;229.07;;;;;;;;;;5070146;28;20104;-64
2020/12/03 13:46:48;;;;;;;416.00;224.88;;;;;;;;;;5070697;28;20027;-64
2020/12/03 13:49:15;;;;;;;420.02;227.73;;;;;;;;;;5056219;28;20025;-65
2020/12/03 13:51:41;;;;;;;416.50;224.80;;;;;;;;;;5070347;28;20019;-64
2020/12/03 13:54:07;;;;;;;422.27;229.93;;;;;;;;;;5069652;28;20446;-64
2020/12/03 13:56:34;;;;;;;416.90;224.27;;;;;;;;;;5061147;28;20046;-63
2020/12/03 13:59:00;;;;;;;422.60;226.15;;;;;;;;;;5065177;28;20021;-64
2020/12/03 14:01:26;;;;;;;419.58;225.43;;;;;;;;;;5069246;28;20020;-64
2020/12/03 14:03:52;;;;;;;420.20;227.13;;;;;;;;;;5069621;28;20078;-65
2020/12/03 14:06:18;;;;;;;421.10;223.77;;;;;;;;;;5061738;28;20029;-64
2020/12/03 14:08:50;;;;;;;415.08;222.82;;;;;;;;;;5069807;28;20426;-64
2020/12/03 14:11:16;;;;;;;416.48;222.85;;;;;;;;;;5064511;28;20494;-64